sensor_id;sensor_type;location;lat;lon;timestamp;P1;durP1;ratioP1;P2;durP2;ratioP2
80823;SDS011;70538;59.122;37.876;2023-07-31T00:01:55;21.38;;;6.78;;
80823;SDS011;70538;59.122;37.876;2023-07-31T00:04:23;55.67;;;21.13;;
80823;SDS011;70538;59.122;37.876;2023-07-31T00:06:51;62.75;;;28.58;;
80823;SDS011;70538;59.122;37.876;2023-07-31T00:09:18;88.38;;;30.45;;
80823;SDS011;70538;59.122;37.876;2023-07-31T00:11:46;66.93;;;25.90;;
80823;SDS011;70538;59.122;37.876;2023-07-31T00:14:14;103.68;;;38.33;;
80823;SDS011;70538;59.122;37.876;2023-07-31T00:16:42;115.15;;;36.30;;
80823;SDS011;70538;59.122;37.876;2023-07-31T00:19:09;85.43;;;29.05;;
80823;SDS011;70538;59.122;37.876;2023-07-31T00:21:37;107.95;;;32.95;;
80823;SDS011;70538;59.122;37.876;2023-07-31T00:24:05;141.70;;;51.13;;
80823;SDS011;70538;59.122;37.876;2023-07-31T00:26:32;73.75;;;28.95;;
80823;SDS011;70538;59.122;37.876;2023-07-31T00:29:00;38.53;;;12.23;;
80823;SDS011;70538;59.122;37.876;2023-07-31T00:31:28;29.95;;;11.77;;
80823;SDS011;70538;59.122;37.876;2023-07-31T00:33:56;16.65;;;5.93;;
80823;SDS011;70538;59.122;37.876;2023-07-31T00:36:23;17.97;;;5.33;;
80823;SDS011;70538;59.122;37.876;2023-07-31T00:38:51;20.52;;;6.45;;
80823;SDS011;70538;59.122;37.876;2023-07-31T00:41:19;14.27;;;4.40;;
80823;SDS011;70538;59.122;37.876;2023-07-31T00:43:47;16.35;;;3.55;;
80823;SDS011;70538;59.122;37.876;2023-07-31T00:46:15;18.35;;;6.53;;
80823;SDS011;70538;59.122;37.876;2023-07-31T00:48:42;26.50;;;10.43;;
80823;SDS011;70538;59.122;37.876;2023-07-31T00:51:10;33.97;;;12.95;;
80823;SDS011;70538;59.122;37.876;2023-07-31T00:53:38;50.50;;;21.15;;
80823;SDS011;70538;59.122;37.876;2023-07-31T00:56:10;37.67;;;14.57;;
80823;SDS011;70538;59.122;37.876;2023-07-31T00:58:38;46.45;;;18.48;;
80823;SDS011;70538;59.122;37.876;2023-07-31T01:01:07;29.70;;;11.37;;
80823;SDS011;70538;59.122;37.876;2023-07-31T01:03:35;22.33;;;6.97;;
80823;SDS011;70538;59.122;37.876;2023-07-31T01:12:03;30.10;;;10.73;;
80823;SDS011;70538;59.122;37.876;2023-07-31T01:14:36;51.87;;;24.47;;
80823;SDS011;70538;59.122;37.876;2023-07-31T01:17:04;34.38;;;12.60;;
80823;SDS011;70538;59.122;37.876;2023-07-31T01:19:32;51.33;;;18.30;;
80823;SDS011;70538;59.122;37.876;2023-07-31T01:25:00;20.55;;;5.95;;
80823;SDS011;70538;59.122;37.876;2023-07-31T01:27:37;28.50;;;7.97;;
80823;SDS011;70538;59.122;37.876;2023-07-31T01:30:12;29.83;;;8.27;;
80823;SDS011;70538;59.122;37.876;2023-07-31T01:32:44;31.70;;;9.52;;
80823;SDS011;70538;59.122;37.876;2023-07-31T01:35:15;48.75;;;14.75;;
80823;SDS011;70538;59.122;37.876;2023-07-31T01:37:43;38.63;;;12.18;;
80823;SDS011;70538;59.122;37.876;2023-07-31T01:40:11;35.27;;;11.33;;
80823;SDS011;70538;59.122;37.876;2023-07-31T01:42:38;69.25;;;20.42;;
80823;SDS011;70538;59.122;37.876;2023-07-31T01:45:06;44.03;;;15.15;;
80823;SDS011;70538;59.122;37.876;2023-07-31T01:47:34;50.30;;;15.57;;
80823;SDS011;70538;59.122;37.876;2023-07-31T01:50:02;93.15;;;30.30;;
80823;SDS011;70538;59.122;37.876;2023-07-31T01:52:30;113.43;;;36.63;;
80823;SDS011;70538;59.122;37.876;2023-07-31T01:54:58;64.03;;;22.88;;
80823;SDS011;70538;59.122;37.876;2023-07-31T01:57:25;85.43;;;29.67;;
80823;SDS011;70538;59.122;37.876;2023-07-31T01:59:53;71.72;;;24.15;;
80823;SDS011;70538;59.122;37.876;2023-07-31T02:02:21;120.22;;;37.38;;
80823;SDS011;70538;59.122;37.876;2023-07-31T02:04:50;111.37;;;36.83;;
80823;SDS011;70538;59.122;37.876;2023-07-31T02:07:18;115.18;;;38.08;;
80823;SDS011;70538;59.122;37.876;2023-07-31T02:09:45;85.65;;;25.83;;
80823;SDS011;70538;59.122;37.876;2023-07-31T02:12:15;112.93;;;29.58;;
80823;SDS011;70538;59.122;37.876;2023-07-31T02:14:42;115.93;;;31.05;;
80823;SDS011;70538;59.122;37.876;2023-07-31T02:17:10;141.80;;;31.70;;
80823;SDS011;70538;59.122;37.876;2023-07-31T02:19:58;109.20;;;27.67;;
80823;SDS011;70538;59.122;37.876;2023-07-31T02:22:25;65.15;;;20.25;;
80823;SDS011;70538;59.122;37.876;2023-07-31T02:24:53;41.25;;;10.82;;
80823;SDS011;70538;59.122;37.876;2023-07-31T02:27:21;60.60;;;20.08;;
80823;SDS011;70538;59.122;37.876;2023-07-31T02:29:55;40.33;;;13.97;;
80823;SDS011;70538;59.122;37.876;2023-07-31T02:32:24;51.35;;;14.00;;
80823;SDS011;70538;59.122;37.876;2023-07-31T02:34:52;33.60;;;9.77;;
80823;SDS011;70538;59.122;37.876;2023-07-31T02:37:19;34.45;;;10.93;;
80823;SDS011;70538;59.122;37.876;2023-07-31T02:39:47;16.92;;;5.45;;
80823;SDS011;70538;59.122;37.876;2023-07-31T02:42:15;19.97;;;5.97;;
80823;SDS011;70538;59.122;37.876;2023-07-31T02:44:42;21.40;;;6.20;;
80823;SDS011;70538;59.122;37.876;2023-07-31T02:47:10;23.83;;;6.57;;
80823;SDS011;70538;59.122;37.876;2023-07-31T02:49:38;13.88;;;4.88;;
80823;SDS011;70538;59.122;37.876;2023-07-31T02:52:06;16.20;;;5.53;;
80823;SDS011;70538;59.122;37.876;2023-07-31T02:54:33;23.07;;;6.90;;
80823;SDS011;70538;59.122;37.876;2023-07-31T02:57:01;35.38;;;11.30;;
80823;SDS011;70538;59.122;37.876;2023-07-31T02:59:29;20.00;;;6.22;;
80823;SDS011;70538;59.122;37.876;2023-07-31T03:01:57;10.77;;;3.65;;
80823;SDS011;70538;59.122;37.876;2023-07-31T03:04:25;11.40;;;3.72;;
80823;SDS011;70538;59.122;37.876;2023-07-31T03:06:53;8.80;;;2.93;;
80823;SDS011;70538;59.122;37.876;2023-07-31T03:09:20;13.30;;;3.78;;
80823;SDS011;70538;59.122;37.876;2023-07-31T03:11:48;10.25;;;2.95;;
80823;SDS011;70538;59.122;37.876;2023-07-31T03:14:16;11.75;;;4.53;;
80823;SDS011;70538;59.122;37.876;2023-07-31T03:16:44;15.05;;;4.88;;
80823;SDS011;70538;59.122;37.876;2023-07-31T03:19:12;12.97;;;4.93;;
80823;SDS011;70538;59.122;37.876;2023-07-31T03:21:40;16.05;;;5.47;;
80823;SDS011;70538;59.122;37.876;2023-07-31T03:24:08;18.85;;;6.00;;
80823;SDS011;70538;59.122;37.876;2023-07-31T03:26:35;13.30;;;4.13;;
80823;SDS011;70538;59.122;37.876;2023-07-31T03:29:05;18.08;;;4.85;;
80823;SDS011;70538;59.122;37.876;2023-07-31T03:31:33;14.20;;;4.07;;
80823;SDS011;70538;59.122;37.876;2023-07-31T03:34:01;15.63;;;4.38;;
80823;SDS011;70538;59.122;37.876;2023-07-31T03:36:29;15.15;;;4.80;;
80823;SDS011;70538;59.122;37.876;2023-07-31T03:38:56;14.10;;;4.95;;
80823;SDS011;70538;59.122;37.876;2023-07-31T03:41:25;24.25;;;6.93;;
80823;SDS011;70538;59.122;37.876;2023-07-31T03:43:52;20.03;;;7.60;;
80823;SDS011;70538;59.122;37.876;2023-07-31T03:46:20;19.52;;;6.78;;
80823;SDS011;70538;59.122;37.876;2023-07-31T03:48:48;17.20;;;6.68;;
80823;SDS011;70538;59.122;37.876;2023-07-31T03:51:17;20.15;;;6.90;;
80823;SDS011;70538;59.122;37.876;2023-07-31T03:53:45;31.20;;;10.60;;
80823;SDS011;70538;59.122;37.876;2023-07-31T03:56:13;74.17;;;22.57;;
80823;SDS011;70538;59.122;37.876;2023-07-31T03:58:41;84.82;;;24.77;;
80823;SDS011;70538;59.122;37.876;2023-07-31T04:01:08;81.15;;;23.83;;
80823;SDS011;70538;59.122;37.876;2023-07-31T04:03:36;81.82;;;23.88;;
80823;SDS011;70538;59.122;37.876;2023-07-31T04:06:04;49.03;;;15.55;;
80823;SDS011;70538;59.122;37.876;2023-07-31T04:08:34;54.40;;;16.73;;
80823;SDS011;70538;59.122;37.876;2023-07-31T04:11:01;49.90;;;16.40;;
80823;SDS011;70538;59.122;37.876;2023-07-31T04:13:29;42.65;;;13.43;;
80823;SDS011;70538;59.122;37.876;2023-07-31T04:15:57;38.63;;;11.27;;
80823;SDS011;70538;59.122;37.876;2023-07-31T04:18:25;34.67;;;10.45;;
80823;SDS011;70538;59.122;37.876;2023-07-31T04:20:53;25.47;;;7.60;;
80823;SDS011;70538;59.122;37.876;2023-07-31T04:23:21;32.40;;;9.07;;
80823;SDS011;70538;59.122;37.876;2023-07-31T04:25:49;30.20;;;7.63;;
80823;SDS011;70538;59.122;37.876;2023-07-31T04:28:17;20.63;;;6.78;;
80823;SDS011;70538;59.122;37.876;2023-07-31T04:30:45;16.98;;;5.85;;
80823;SDS011;70538;59.122;37.876;2023-07-31T04:33:16;18.37;;;5.47;;
80823;SDS011;70538;59.122;37.876;2023-07-31T04:35:51;18.75;;;5.45;;
80823;SDS011;70538;59.122;37.876;2023-07-31T04:38:20;20.98;;;6.72;;
80823;SDS011;70538;59.122;37.876;2023-07-31T04:40:49;29.73;;;8.68;;
80823;SDS011;70538;59.122;37.876;2023-07-31T04:43:17;33.00;;;9.40;;
80823;SDS011;70538;59.122;37.876;2023-07-31T04:45:45;46.97;;;14.73;;
80823;SDS011;70538;59.122;37.876;2023-07-31T04:48:15;29.08;;;7.10;;
80823;SDS011;70538;59.122;37.876;2023-07-31T04:50:43;35.92;;;11.52;;
80823;SDS011;70538;59.122;37.876;2023-07-31T04:53:11;79.63;;;20.13;;
80823;SDS011;70538;59.122;37.876;2023-07-31T04:55:39;63.92;;;15.00;;
80823;SDS011;70538;59.122;37.876;2023-07-31T04:58:07;55.33;;;14.80;;
80823;SDS011;70538;59.122;37.876;2023-07-31T05:00:34;75.20;;;22.98;;
80823;SDS011;70538;59.122;37.876;2023-07-31T05:03:02;80.72;;;26.90;;
80823;SDS011;70538;59.122;37.876;2023-07-31T05:05:30;69.63;;;20.30;;
80823;SDS011;70538;59.122;37.876;2023-07-31T05:07:58;84.45;;;24.30;;
80823;SDS011;70538;59.122;37.876;2023-07-31T05:10:25;57.40;;;15.47;;
80823;SDS011;70538;59.122;37.876;2023-07-31T05:12:53;72.38;;;21.15;;
80823;SDS011;70538;59.122;37.876;2023-07-31T05:15:21;79.38;;;22.38;;
80823;SDS011;70538;59.122;37.876;2023-07-31T05:17:48;73.63;;;21.65;;
80823;SDS011;70538;59.122;37.876;2023-07-31T05:20:16;84.68;;;23.88;;
80823;SDS011;70538;59.122;37.876;2023-07-31T05:22:44;84.17;;;22.10;;
80823;SDS011;70538;59.122;37.876;2023-07-31T05:25:11;82.60;;;22.55;;
80823;SDS011;70538;59.122;37.876;2023-07-31T05:27:39;75.57;;;20.33;;
80823;SDS011;70538;59.122;37.876;2023-07-31T05:30:07;64.85;;;17.20;;
80823;SDS011;70538;59.122;37.876;2023-07-31T05:32:35;76.45;;;22.33;;
80823;SDS011;70538;59.122;37.876;2023-07-31T05:35:03;56.40;;;17.43;;
80823;SDS011;70538;59.122;37.876;2023-07-31T05:37:31;71.57;;;20.58;;
80823;SDS011;70538;59.122;37.876;2023-07-31T05:39:59;60.38;;;18.48;;
80823;SDS011;70538;59.122;37.876;2023-07-31T05:42:30;61.65;;;18.10;;
80823;SDS011;70538;59.122;37.876;2023-07-31T05:44:57;64.82;;;17.75;;
80823;SDS011;70538;59.122;37.876;2023-07-31T05:47:25;52.70;;;15.40;;
80823;SDS011;70538;59.122;37.876;2023-07-31T05:49:53;60.28;;;14.77;;
80823;SDS011;70538;59.122;37.876;2023-07-31T05:52:20;47.55;;;13.90;;
80823;SDS011;70538;59.122;37.876;2023-07-31T05:54:48;54.35;;;14.52;;
80823;SDS011;70538;59.122;37.876;2023-07-31T05:57:16;45.53;;;14.57;;
80823;SDS011;70538;59.122;37.876;2023-07-31T05:59:44;55.37;;;13.57;;
80823;SDS011;70538;59.122;37.876;2023-07-31T06:02:11;60.05;;;15.50;;
80823;SDS011;70538;59.122;37.876;2023-07-31T06:04:40;79.53;;;15.98;;
80823;SDS011;70538;59.122;37.876;2023-07-31T06:07:08;60.75;;;13.82;;
80823;SDS011;70538;59.122;37.876;2023-07-31T06:09:36;38.15;;;9.70;;
80823;SDS011;70538;59.122;37.876;2023-07-31T06:12:03;60.03;;;16.77;;
80823;SDS011;70538;59.122;37.876;2023-07-31T06:14:31;41.03;;;11.98;;
80823;SDS011;70538;59.122;37.876;2023-07-31T06:16:59;42.55;;;12.02;;
80823;SDS011;70538;59.122;37.876;2023-07-31T06:19:27;32.58;;;10.55;;
80823;SDS011;70538;59.122;37.876;2023-07-31T06:21:54;27.05;;;8.52;;
80823;SDS011;70538;59.122;37.876;2023-07-31T06:24:22;39.80;;;11.33;;
80823;SDS011;70538;59.122;37.876;2023-07-31T06:26:50;24.85;;;9.20;;
80823;SDS011;70538;59.122;37.876;2023-07-31T06:29:18;29.08;;;10.02;;
80823;SDS011;70538;59.122;37.876;2023-07-31T06:31:46;30.00;;;10.38;;
80823;SDS011;70538;59.122;37.876;2023-07-31T06:34:14;38.65;;;12.77;;
80823;SDS011;70538;59.122;37.876;2023-07-31T06:36:41;47.90;;;17.37;;
80823;SDS011;70538;59.122;37.876;2023-07-31T06:39:11;38.30;;;12.77;;
80823;SDS011;70538;59.122;37.876;2023-07-31T06:41:39;38.85;;;12.95;;
80823;SDS011;70538;59.122;37.876;2023-07-31T06:44:07;35.58;;;11.73;;
80823;SDS011;70538;59.122;37.876;2023-07-31T06:46:35;50.78;;;13.20;;
80823;SDS011;70538;59.122;37.876;2023-07-31T06:49:04;21.20;;;7.13;;
80823;SDS011;70538;59.122;37.876;2023-07-31T06:51:32;18.83;;;5.40;;
80823;SDS011;70538;59.122;37.876;2023-07-31T06:53:59;30.40;;;8.68;;
80823;SDS011;70538;59.122;37.876;2023-07-31T06:56:27;30.63;;;8.90;;
80823;SDS011;70538;59.122;37.876;2023-07-31T06:58:55;28.58;;;7.78;;
80823;SDS011;70538;59.122;37.876;2023-07-31T07:01:23;22.63;;;6.37;;
80823;SDS011;70538;59.122;37.876;2023-07-31T07:03:51;17.40;;;5.22;;
80823;SDS011;70538;59.122;37.876;2023-07-31T07:06:19;20.42;;;6.50;;
80823;SDS011;70538;59.122;37.876;2023-07-31T07:08:47;14.68;;;5.07;;
80823;SDS011;70538;59.122;37.876;2023-07-31T07:11:14;13.00;;;4.63;;
80823;SDS011;70538;59.122;37.876;2023-07-31T07:13:43;15.03;;;4.20;;
80823;SDS011;70538;59.122;37.876;2023-07-31T07:16:11;6.72;;;2.65;;
80823;SDS011;70538;59.122;37.876;2023-07-31T07:18:39;15.07;;;3.25;;
80823;SDS011;70538;59.122;37.876;2023-07-31T07:21:20;5.95;;;1.95;;
80823;SDS011;70538;59.122;37.876;2023-07-31T07:23:47;7.35;;;2.20;;
80823;SDS011;70538;59.122;37.876;2023-07-31T07:26:15;7.10;;;1.90;;
80823;SDS011;70538;59.122;37.876;2023-07-31T07:28:43;5.00;;;2.05;;
80823;SDS011;70538;59.122;37.876;2023-07-31T07:31:10;5.40;;;1.50;;
80823;SDS011;70538;59.122;37.876;2023-07-31T07:33:38;5.80;;;1.58;;
80823;SDS011;70538;59.122;37.876;2023-07-31T07:36:06;6.50;;;2.00;;
80823;SDS011;70538;59.122;37.876;2023-07-31T07:38:36;5.47;;;1.97;;
80823;SDS011;70538;59.122;37.876;2023-07-31T07:41:06;11.50;;;4.35;;
80823;SDS011;70538;59.122;37.876;2023-07-31T07:43:34;10.57;;;4.35;;
80823;SDS011;70538;59.122;37.876;2023-07-31T07:46:02;23.08;;;5.63;;
80823;SDS011;70538;59.122;37.876;2023-07-31T07:48:30;5.43;;;2.00;;
80823;SDS011;70538;59.122;37.876;2023-07-31T07:50:57;7.73;;;2.47;;
80823;SDS011;70538;59.122;37.876;2023-07-31T07:53:25;9.93;;;3.22;;
80823;SDS011;70538;59.122;37.876;2023-07-31T07:55:53;8.73;;;2.53;;
80823;SDS011;70538;59.122;37.876;2023-07-31T07:58:21;15.00;;;5.40;;
80823;SDS011;70538;59.122;37.876;2023-07-31T08:00:51;10.70;;;2.85;;
80823;SDS011;70538;59.122;37.876;2023-07-31T08:03:19;6.73;;;2.13;;
80823;SDS011;70538;59.122;37.876;2023-07-31T08:05:47;9.32;;;3.00;;
80823;SDS011;70538;59.122;37.876;2023-07-31T08:08:15;17.60;;;5.32;;
80823;SDS011;70538;59.122;37.876;2023-07-31T08:10:43;13.80;;;5.60;;
80823;SDS011;70538;59.122;37.876;2023-07-31T08:13:11;10.52;;;4.10;;
80823;SDS011;70538;59.122;37.876;2023-07-31T08:15:41;18.73;;;5.13;;
80823;SDS011;70538;59.122;37.876;2023-07-31T08:18:10;12.07;;;4.65;;
80823;SDS011;70538;59.122;37.876;2023-07-31T08:20:39;16.42;;;5.75;;
80823;SDS011;70538;59.122;37.876;2023-07-31T08:23:06;25.55;;;7.95;;
80823;SDS011;70538;59.122;37.876;2023-07-31T08:25:35;25.92;;;7.78;;
80823;SDS011;70538;59.122;37.876;2023-07-31T08:28:04;22.10;;;6.20;;
80823;SDS011;70538;59.122;37.876;2023-07-31T08:30:33;14.45;;;5.60;;
80823;SDS011;70538;59.122;37.876;2023-07-31T08:33:01;11.15;;;3.42;;
80823;SDS011;70538;59.122;37.876;2023-07-31T08:35:29;11.07;;;2.72;;
80823;SDS011;70538;59.122;37.876;2023-07-31T08:37:57;11.25;;;3.75;;
80823;SDS011;70538;59.122;37.876;2023-07-31T08:40:25;10.30;;;3.90;;
80823;SDS011;70538;59.122;37.876;2023-07-31T08:42:55;16.08;;;4.40;;
80823;SDS011;70538;59.122;37.876;2023-07-31T08:45:24;10.55;;;3.70;;
80823;SDS011;70538;59.122;37.876;2023-07-31T08:47:52;14.02;;;5.03;;
80823;SDS011;70538;59.122;37.876;2023-07-31T08:50:20;18.20;;;5.25;;
80823;SDS011;70538;59.122;37.876;2023-07-31T08:52:49;11.27;;;4.00;;
80823;SDS011;70538;59.122;37.876;2023-07-31T08:55:18;11.75;;;3.72;;
80823;SDS011;70538;59.122;37.876;2023-07-31T08:57:52;11.77;;;3.83;;
80823;SDS011;70538;59.122;37.876;2023-07-31T09:00:21;10.45;;;3.63;;
80823;SDS011;70538;59.122;37.876;2023-07-31T09:05:38;9.80;;;4.30;;
80823;SDS011;70538;59.122;37.876;2023-07-31T09:08:09;11.82;;;3.60;;
80823;SDS011;70538;59.122;37.876;2023-07-31T09:10:44;11.48;;;3.70;;
80823;SDS011;70538;59.122;37.876;2023-07-31T09:13:13;18.48;;;5.28;;
80823;SDS011;70538;59.122;37.876;2023-07-31T09:15:45;12.52;;;4.45;;
80823;SDS011;70538;59.122;37.876;2023-07-31T09:18:14;38.57;;;12.67;;
80823;SDS011;70538;59.122;37.876;2023-07-31T09:20:45;25.10;;;7.85;;
80823;SDS011;70538;59.122;37.876;2023-07-31T09:23:27;9.95;;;3.63;;
80823;SDS011;70538;59.122;37.876;2023-07-31T09:26:11;15.02;;;5.43;;
80823;SDS011;70538;59.122;37.876;2023-07-31T09:28:55;12.63;;;4.78;;
80823;SDS011;70538;59.122;37.876;2023-07-31T09:34:28;10.25;;;4.45;;
80823;SDS011;70538;59.122;37.876;2023-07-31T09:36:58;12.70;;;3.83;;
80823;SDS011;70538;59.122;37.876;2023-07-31T09:39:29;11.13;;;3.55;;
80823;SDS011;70538;59.122;37.876;2023-07-31T09:41:57;11.80;;;3.75;;
80823;SDS011;70538;59.122;37.876;2023-07-31T09:44:43;10.27;;;3.70;;
80823;SDS011;70538;59.122;37.876;2023-07-31T09:47:21;13.35;;;4.90;;
80823;SDS011;70538;59.122;37.876;2023-07-31T09:49:52;14.07;;;5.47;;
80823;SDS011;70538;59.122;37.876;2023-07-31T09:52:20;17.38;;;5.88;;
80823;SDS011;70538;59.122;37.876;2023-07-31T09:54:48;14.73;;;3.92;;
80823;SDS011;70538;59.122;37.876;2023-07-31T09:57:16;7.80;;;3.23;;
80823;SDS011;70538;59.122;37.876;2023-07-31T09:59:46;10.48;;;2.63;;
80823;SDS011;70538;59.122;37.876;2023-07-31T10:02:21;7.88;;;2.42;;
80823;SDS011;70538;59.122;37.876;2023-07-31T10:04:50;10.30;;;3.50;;
80823;SDS011;70538;59.122;37.876;2023-07-31T10:07:22;11.80;;;3.90;;
80823;SDS011;70538;59.122;37.876;2023-07-31T10:09:53;5.30;;;2.13;;
80823;SDS011;70538;59.122;37.876;2023-07-31T10:12:23;9.95;;;3.40;;
80823;SDS011;70538;59.122;37.876;2023-07-31T10:15:02;10.40;;;4.13;;
80823;SDS011;70538;59.122;37.876;2023-07-31T10:17:33;20.80;;;8.52;;
80823;SDS011;70538;59.122;37.876;2023-07-31T10:20:03;5.93;;;2.10;;
80823;SDS011;70538;59.122;37.876;2023-07-31T10:22:33;8.73;;;2.73;;
80823;SDS011;70538;59.122;37.876;2023-07-31T10:25:02;13.50;;;4.15;;
80823;SDS011;70538;59.122;37.876;2023-07-31T10:27:31;10.07;;;2.83;;
80823;SDS011;70538;59.122;37.876;2023-07-31T10:30:02;10.85;;;3.17;;
80823;SDS011;70538;59.122;37.876;2023-07-31T10:32:32;12.32;;;4.18;;
80823;SDS011;70538;59.122;37.876;2023-07-31T10:35:00;18.13;;;4.50;;
80823;SDS011;70538;59.122;37.876;2023-07-31T10:40:07;13.88;;;4.35;;
80823;SDS011;70538;59.122;37.876;2023-07-31T10:42:47;13.23;;;3.88;;
80823;SDS011;70538;59.122;37.876;2023-07-31T10:45:30;7.28;;;2.80;;
80823;SDS011;70538;59.122;37.876;2023-07-31T10:48:07;13.83;;;5.60;;
80823;SDS011;70538;59.122;37.876;2023-07-31T10:50:55;14.63;;;5.38;;
80823;SDS011;70538;59.122;37.876;2023-07-31T10:53:24;24.92;;;5.68;;
80823;SDS011;70538;59.122;37.876;2023-07-31T10:56:01;13.70;;;4.30;;
80823;SDS011;70538;59.122;37.876;2023-07-31T10:58:33;18.13;;;6.65;;
80823;SDS011;70538;59.122;37.876;2023-07-31T11:01:02;23.43;;;8.63;;
80823;SDS011;70538;59.122;37.876;2023-07-31T11:03:47;21.50;;;8.35;;
80823;SDS011;70538;59.122;37.876;2023-07-31T11:06:16;19.83;;;9.68;;
80823;SDS011;70538;59.122;37.876;2023-07-31T11:08:49;10.70;;;4.03;;
80823;SDS011;70538;59.122;37.876;2023-07-31T11:11:19;12.75;;;4.00;;
80823;SDS011;70538;59.122;37.876;2023-07-31T11:13:49;5.30;;;1.87;;
80823;SDS011;70538;59.122;37.876;2023-07-31T11:16:20;7.57;;;2.70;;
80823;SDS011;70538;59.122;37.876;2023-07-31T11:18:50;8.68;;;2.95;;
80823;SDS011;70538;59.122;37.876;2023-07-31T11:21:19;8.77;;;4.65;;
80823;SDS011;70538;59.122;37.876;2023-07-31T11:23:51;9.98;;;3.28;;
80823;SDS011;70538;59.122;37.876;2023-07-31T11:26:24;10.33;;;3.43;;
80823;SDS011;70538;59.122;37.876;2023-07-31T11:28:52;11.35;;;2.00;;
80823;SDS011;70538;59.122;37.876;2023-07-31T11:31:20;14.02;;;3.80;;
80823;SDS011;70538;59.122;37.876;2023-07-31T11:33:48;7.97;;;3.05;;
80823;SDS011;70538;59.122;37.876;2023-07-31T11:36:16;11.40;;;3.67;;
80823;SDS011;70538;59.122;37.876;2023-07-31T11:38:45;15.33;;;4.17;;
80823;SDS011;70538;59.122;37.876;2023-07-31T11:41:14;22.70;;;4.22;;
80823;SDS011;70538;59.122;37.876;2023-07-31T11:43:45;12.65;;;3.78;;
80823;SDS011;70538;59.122;37.876;2023-07-31T11:46:14;13.43;;;3.90;;
80823;SDS011;70538;59.122;37.876;2023-07-31T11:48:43;11.35;;;3.20;;
80823;SDS011;70538;59.122;37.876;2023-07-31T11:51:11;15.73;;;3.70;;
80823;SDS011;70538;59.122;37.876;2023-07-31T11:53:44;12.35;;;3.40;;
80823;SDS011;70538;59.122;37.876;2023-07-31T11:56:16;11.25;;;3.13;;
80823;SDS011;70538;59.122;37.876;2023-07-31T11:59:06;12.93;;;3.80;;
80823;SDS011;70538;59.122;37.876;2023-07-31T12:01:35;12.05;;;3.20;;
80823;SDS011;70538;59.122;37.876;2023-07-31T12:04:03;10.93;;;2.93;;
80823;SDS011;70538;59.122;37.876;2023-07-31T12:06:35;6.38;;;2.95;;
80823;SDS011;70538;59.122;37.876;2023-07-31T12:09:04;7.78;;;3.10;;
80823;SDS011;70538;59.122;37.876;2023-07-31T12:11:43;7.55;;;3.08;;
80823;SDS011;70538;59.122;37.876;2023-07-31T12:14:21;8.38;;;3.03;;
80823;SDS011;70538;59.122;37.876;2023-07-31T12:16:57;9.23;;;2.70;;
80823;SDS011;70538;59.122;37.876;2023-07-31T12:19:26;8.98;;;2.83;;
80823;SDS011;70538;59.122;37.876;2023-07-31T12:21:58;8.77;;;3.42;;
80823;SDS011;70538;59.122;37.876;2023-07-31T12:24:27;9.10;;;3.08;;
80823;SDS011;70538;59.122;37.876;2023-07-31T12:26:56;9.10;;;3.00;;
80823;SDS011;70538;59.122;37.876;2023-07-31T12:29:23;8.43;;;2.83;;
80823;SDS011;70538;59.122;37.876;2023-07-31T12:32:19;8.73;;;3.13;;
80823;SDS011;70538;59.122;37.876;2023-07-31T12:34:47;6.10;;;2.55;;
80823;SDS011;70538;59.122;37.876;2023-07-31T12:37:15;10.75;;;3.28;;
80823;SDS011;70538;59.122;37.876;2023-07-31T12:39:43;6.53;;;2.83;;
80823;SDS011;70538;59.122;37.876;2023-07-31T12:42:10;8.07;;;3.20;;
80823;SDS011;70538;59.122;37.876;2023-07-31T12:44:39;9.95;;;3.90;;
80823;SDS011;70538;59.122;37.876;2023-07-31T12:47:06;13.77;;;3.88;;
80823;SDS011;70538;59.122;37.876;2023-07-31T12:49:34;6.97;;;3.55;;
80823;SDS011;70538;59.122;37.876;2023-07-31T12:52:01;11.30;;;3.63;;
80823;SDS011;70538;59.122;37.876;2023-07-31T12:54:29;7.37;;;3.23;;
80823;SDS011;70538;59.122;37.876;2023-07-31T12:56:57;9.70;;;3.38;;
80823;SDS011;70538;59.122;37.876;2023-07-31T12:59:25;13.13;;;3.60;;
80823;SDS011;70538;59.122;37.876;2023-07-31T13:01:53;16.80;;;4.22;;
80823;SDS011;70538;59.122;37.876;2023-07-31T13:04:21;7.15;;;2.67;;
80823;SDS011;70538;59.122;37.876;2023-07-31T13:06:48;8.77;;;3.63;;
80823;SDS011;70538;59.122;37.876;2023-07-31T13:09:17;8.88;;;3.88;;
80823;SDS011;70538;59.122;37.876;2023-07-31T13:11:46;9.95;;;3.30;;
80823;SDS011;70538;59.122;37.876;2023-07-31T13:14:14;7.80;;;3.80;;
80823;SDS011;70538;59.122;37.876;2023-07-31T13:16:42;11.25;;;4.60;;
80823;SDS011;70538;59.122;37.876;2023-07-31T13:19:10;9.30;;;4.37;;
80823;SDS011;70538;59.122;37.876;2023-07-31T13:21:38;7.78;;;3.55;;
80823;SDS011;70538;59.122;37.876;2023-07-31T13:24:07;9.82;;;4.00;;
80823;SDS011;70538;59.122;37.876;2023-07-31T13:26:34;11.45;;;3.55;;
80823;SDS011;70538;59.122;37.876;2023-07-31T13:29:03;11.40;;;3.75;;
80823;SDS011;70538;59.122;37.876;2023-07-31T13:31:32;11.53;;;3.70;;
80823;SDS011;70538;59.122;37.876;2023-07-31T13:34:00;9.02;;;3.92;;
80823;SDS011;70538;59.122;37.876;2023-07-31T13:36:28;21.48;;;5.00;;
80823;SDS011;70538;59.122;37.876;2023-07-31T13:38:55;25.17;;;5.60;;
80823;SDS011;70538;59.122;37.876;2023-07-31T13:41:23;11.88;;;4.43;;
80823;SDS011;70538;59.122;37.876;2023-07-31T13:43:51;12.40;;;4.57;;
80823;SDS011;70538;59.122;37.876;2023-07-31T13:46:19;9.57;;;4.18;;
80823;SDS011;70538;59.122;37.876;2023-07-31T13:48:46;9.25;;;4.05;;
80823;SDS011;70538;59.122;37.876;2023-07-31T13:51:14;12.73;;;4.07;;
80823;SDS011;70538;59.122;37.876;2023-07-31T13:53:42;14.30;;;4.75;;
80823;SDS011;70538;59.122;37.876;2023-07-31T13:56:09;29.80;;;13.80;;
80823;SDS011;70538;59.122;37.876;2023-07-31T13:58:37;18.17;;;7.50;;
80823;SDS011;70538;59.122;37.876;2023-07-31T14:01:06;22.55;;;8.20;;
80823;SDS011;70538;59.122;37.876;2023-07-31T14:03:34;30.48;;;12.40;;
80823;SDS011;70538;59.122;37.876;2023-07-31T14:06:02;17.25;;;6.30;;
80823;SDS011;70538;59.122;37.876;2023-07-31T14:08:30;12.87;;;4.50;;
80823;SDS011;70538;59.122;37.876;2023-07-31T14:10:58;14.43;;;5.05;;
80823;SDS011;70538;59.122;37.876;2023-07-31T14:13:25;9.40;;;3.70;;
80823;SDS011;70538;59.122;37.876;2023-07-31T14:15:53;14.57;;;3.53;;
80823;SDS011;70538;59.122;37.876;2023-07-31T14:18:21;12.85;;;3.80;;
80823;SDS011;70538;59.122;37.876;2023-07-31T14:20:49;23.03;;;5.13;;
80823;SDS011;70538;59.122;37.876;2023-07-31T14:23:17;11.43;;;3.72;;
80823;SDS011;70538;59.122;37.876;2023-07-31T14:25:47;12.25;;;3.80;;
80823;SDS011;70538;59.122;37.876;2023-07-31T14:28:15;10.27;;;3.88;;
80823;SDS011;70538;59.122;37.876;2023-07-31T14:30:43;12.95;;;3.60;;
80823;SDS011;70538;59.122;37.876;2023-07-31T14:33:13;11.23;;;3.50;;
80823;SDS011;70538;59.122;37.876;2023-07-31T14:35:41;9.80;;;3.50;;
80823;SDS011;70538;59.122;37.876;2023-07-31T14:38:09;7.13;;;3.03;;
80823;SDS011;70538;59.122;37.876;2023-07-31T14:40:36;7.65;;;3.00;;
80823;SDS011;70538;59.122;37.876;2023-07-31T14:43:07;15.68;;;3.72;;
80823;SDS011;70538;59.122;37.876;2023-07-31T14:45:36;9.87;;;2.90;;
80823;SDS011;70538;59.122;37.876;2023-07-31T14:48:04;8.02;;;2.80;;